Weather at RCAF Station Lincoln Park [CLOSED]

Public forecast

Using degrees Celsius for public forecast. Weather courtesy of forecast.io.

Closest aviation weather report (METAR) to RCAF Station Lincoln Park

Closest report is Calgary International Airport, 7.6 nm (14.0 km) NE.

2023/02/01 05:00 (retrieved 38 minutes ago)

CYYC 010500Z 18004KT 15SM FEW080 SCT240 M11/M12 A2977 RMK AC1CI3 FROIN SLP154

Closest aviation forecast (TAF) to RCAF Station Lincoln Park

Forecast is more than 6 hours old.

Closest forecast is Castlegar/West Kootenay Regional Airport, 169.4 nm (313.7 km) SW.

2023/01/31 19:00 (retrieved 11 hours ago)

TAF CYCG 311840Z 3119/0101 VRB03KT P6SM BKN060 OVC120 TEMPO 3119/0101 P6SM -SN OVC040 RMK NXT FCST BY 011600Z